createdAt,value
2023-02-12T00:00:40.060Z,46.42
2023-02-12T00:03:06.755Z,52.45
2023-02-12T00:05:33.271Z,50.00
2023-02-12T00:08:00.011Z,41.25
2023-02-12T00:10:26.515Z,43.17
2023-02-12T00:12:56.099Z,50.35
2023-02-12T00:15:22.608Z,47.42
2023-02-12T00:17:49.120Z,44.08
2023-02-12T00:20:15.733Z,47.33
2023-02-12T00:22:42.226Z,49.65
2023-02-12T00:25:08.752Z,48.80
2023-02-12T00:27:35.556Z,50.40
2023-02-12T00:30:02.257Z,46.13
2023-02-12T00:32:28.715Z,47.00
2023-02-12T00:34:55.201Z,48.20
2023-02-12T00:37:21.649Z,51.72
2023-02-12T00:39:48.104Z,47.05
2023-02-12T00:42:14.537Z,43.75
2023-02-12T00:44:40.998Z,47.33
2023-02-12T00:47:07.497Z,46.28
2023-02-12T00:49:36.937Z,47.40
2023-02-12T00:52:04.331Z,49.10
2023-02-12T00:54:31.462Z,44.10
2023-02-12T00:56:58.155Z,47.63
2023-02-12T00:59:29.100Z,48.72
2023-02-12T01:01:56.605Z,46.35
2023-02-12T01:04:23.793Z,50.30
2023-02-12T01:06:50.371Z,46.55
2023-02-12T01:09:16.847Z,47.80
2023-02-12T01:11:43.582Z,52.33
2023-02-12T01:14:10.118Z,51.35
2023-02-12T01:16:36.966Z,48.72
2023-02-12T01:19:04.411Z,50.00
2023-02-12T01:21:32.066Z,46.30
2023-02-12T01:23:58.842Z,51.45
2023-02-12T01:26:25.968Z,44.65
2023-02-12T01:28:54.429Z,46.80
2023-02-12T01:31:22.341Z,49.97
2023-02-12T01:33:50.971Z,53.92
2023-02-12T01:36:17.388Z,46.35
2023-02-12T01:38:44.000Z,55.47
2023-02-12T01:41:12.926Z,47.22
2023-02-12T01:43:39.749Z,48.83
2023-02-12T01:46:06.595Z,46.70
2023-02-12T01:48:36.183Z,48.00
2023-02-12T01:51:03.960Z,49.03
2023-02-12T01:53:34.946Z,49.08
2023-02-12T01:56:02.102Z,52.92
2023-02-12T01:58:31.561Z,46.43
2023-02-12T02:00:59.337Z,45.10
2023-02-12T02:03:25.853Z,46.30
2023-02-12T02:06:06.331Z,44.63
2023-02-12T02:08:33.842Z,51.53
2023-02-12T02:11:01.130Z,49.97
2023-02-12T02:13:46.378Z,47.97
2023-02-12T02:16:20.890Z,47.58
2023-02-12T02:18:56.023Z,50.38
2023-02-12T02:21:32.874Z,47.70
2023-02-12T02:24:21.158Z,46.23
2023-02-12T02:26:58.238Z,50.70
2023-02-12T02:29:43.438Z,47.77
2023-02-12T02:32:17.140Z,54.87
2023-02-12T02:34:49.734Z,52.37
2023-02-12T02:37:28.505Z,52.03
2023-02-12T02:40:00.381Z,46.80
2023-02-12T02:42:35.178Z,46.53
2023-02-12T02:45:08.183Z,51.77
2023-02-12T02:47:49.761Z,52.90
2023-02-12T02:50:17.862Z,58.70
2023-02-12T02:52:53.913Z,58.22
2023-02-12T02:55:21.596Z,59.15
2023-02-12T02:58:07.501Z,53.38
2023-02-12T03:00:37.399Z,55.77
2023-02-12T03:03:30.352Z,53.03
2023-02-12T03:06:01.314Z,56.33
2023-02-12T03:08:34.309Z,55.93
2023-02-12T03:11:07.933Z,52.67
2023-02-12T03:13:37.764Z,64.77
2023-02-12T03:16:07.861Z,60.77
2023-02-12T03:18:36.831Z,59.63
2023-02-12T03:21:06.490Z,63.47
2023-02-12T03:23:37.630Z,60.27
2023-02-12T03:26:06.057Z,62.13
2023-02-12T03:28:34.456Z,49.13
2023-02-12T03:31:19.992Z,53.27
2023-02-12T03:34:05.337Z,55.37
2023-02-12T03:36:37.975Z,57.15
2023-02-12T03:39:17.500Z,60.60
2023-02-12T03:41:59.526Z,60.73
2023-02-12T03:44:38.801Z,58.17
2023-02-12T03:47:10.511Z,55.73
2023-02-12T03:49:42.855Z,53.20
2023-02-12T03:52:09.443Z,47.75
2023-02-12T03:54:37.066Z,58.70
2023-02-12T03:57:06.314Z,50.93
2023-02-12T03:59:35.483Z,53.05
2023-02-12T04:02:01.937Z,47.45
2023-02-12T04:04:29.239Z,49.97
2023-02-12T04:06:56.064Z,49.22
2023-02-12T04:09:24.145Z,46.70
2023-02-12T04:11:50.563Z,49.25
2023-02-12T04:14:20.045Z,59.28
2023-02-12T04:17:05.371Z,47.83
2023-02-12T04:19:41.507Z,52.25
2023-02-12T04:22:31.278Z,49.30
2023-02-12T04:25:12.089Z,52.97
2023-02-12T04:27:46.804Z,55.57
2023-02-12T04:30:22.513Z,63.23
2023-02-12T04:32:51.854Z,63.30
2023-02-12T04:35:24.637Z,63.47
2023-02-12T04:37:55.175Z,55.33
2023-02-12T04:40:21.938Z,56.97
2023-02-12T04:42:49.558Z,54.87
2023-02-12T04:45:20.429Z,59.17
2023-02-12T04:47:47.041Z,56.47
2023-02-12T04:50:13.732Z,60.90
2023-02-12T04:52:40.238Z,53.63
2023-02-12T04:55:06.812Z,59.53
2023-02-12T04:57:33.293Z,61.05
2023-02-12T04:59:59.853Z,57.88
2023-02-12T05:02:26.653Z,51.25
2023-02-12T05:04:53.150Z,47.88
2023-02-12T05:07:19.594Z,56.80
2023-02-12T05:09:46.058Z,50.93
2023-02-12T05:12:12.616Z,48.27
2023-02-12T05:14:39.098Z,50.00
2023-02-12T05:17:05.612Z,48.95
2023-02-12T05:19:32.172Z,51.20
2023-02-12T05:21:58.726Z,49.08
2023-02-12T05:24:25.958Z,53.88
2023-02-12T05:26:52.756Z,57.47
2023-02-12T05:29:19.622Z,54.28
2023-02-12T05:31:46.171Z,51.88
2023-02-12T05:34:13.264Z,52.95
2023-02-12T05:36:39.808Z,55.13
2023-02-12T05:39:07.275Z,48.67
2023-02-12T05:41:35.518Z,48.07
2023-02-12T05:44:04.881Z,54.03
2023-02-12T05:46:31.362Z,55.20
2023-02-12T05:48:57.880Z,55.43
2023-02-12T05:51:25.843Z,57.40
2023-02-12T05:53:53.305Z,57.97
2023-02-12T05:56:21.371Z,58.77
2023-02-12T05:58:51.421Z,53.67
2023-02-12T06:01:19.277Z,56.63
2023-02-12T06:03:45.957Z,58.90
2023-02-12T06:06:12.743Z,51.10
2023-02-12T06:08:39.268Z,54.22
2023-02-12T06:11:08.287Z,57.70
2023-02-12T06:13:34.865Z,57.97
2023-02-12T06:16:01.619Z,59.20
2023-02-12T06:18:28.248Z,53.37
2023-02-12T06:20:54.966Z,57.40
2023-02-12T06:23:21.824Z,55.33
2023-02-12T06:25:49.841Z,52.33
2023-02-12T06:28:16.839Z,58.13
2023-02-12T06:30:43.494Z,56.77
2023-02-12T06:33:09.948Z,57.53
2023-02-12T06:35:36.597Z,59.78
2023-02-12T06:38:03.326Z,60.03
2023-02-12T06:40:29.829Z,56.53
2023-02-12T06:42:56.499Z,60.23
2023-02-12T06:45:22.954Z,51.17
2023-02-12T06:47:49.371Z,58.50
2023-02-12T06:50:16.007Z,58.63
2023-02-12T06:52:42.445Z,58.20
2023-02-12T06:55:08.955Z,63.10
2023-02-12T06:57:35.450Z,62.50
2023-02-12T07:00:02.085Z,65.05
2023-02-12T07:02:28.582Z,61.08
2023-02-12T07:04:55.001Z,51.70
2023-02-12T07:07:21.463Z,56.75
2023-02-12T07:09:47.888Z,57.65
2023-02-12T07:12:14.375Z,56.30
2023-02-12T07:14:40.820Z,50.65
2023-02-12T07:17:08.683Z,58.67
2023-02-12T07:19:35.219Z,56.63
2023-02-12T07:22:01.898Z,58.50
2023-02-12T07:24:28.405Z,60.20
2023-02-12T07:26:54.839Z,59.55
2023-02-12T07:29:21.263Z,61.37
2023-02-12T07:31:47.840Z,49.87
2023-02-12T07:34:14.338Z,53.93
2023-02-12T07:36:40.975Z,56.93
2023-02-12T07:39:07.519Z,58.33
2023-02-12T07:41:35.401Z,59.90
2023-02-12T07:44:07.446Z,55.83
2023-02-12T07:46:35.557Z,59.23
2023-02-12T07:49:04.311Z,57.40
2023-02-12T07:51:32.667Z,55.97
2023-02-12T07:54:00.552Z,58.50
2023-02-12T07:56:32.495Z,57.55
2023-02-12T07:59:00.756Z,54.23
2023-02-12T08:01:29.250Z,57.95
2023-02-12T08:04:06.129Z,57.08
2023-02-12T08:06:33.914Z,56.13
2023-02-12T08:09:01.087Z,61.70
2023-02-12T08:11:28.632Z,56.15
2023-02-12T08:13:55.594Z,57.83
2023-02-12T08:16:23.578Z,58.30
2023-02-12T08:18:50.109Z,54.42
2023-02-12T08:21:20.700Z,55.08
2023-02-12T08:23:50.607Z,53.00
2023-02-12T08:26:18.597Z,51.95
2023-02-12T08:28:47.357Z,51.78
2023-02-12T08:31:15.176Z,52.38
2023-02-12T08:33:41.712Z,52.95
2023-02-12T08:36:09.901Z,53.72
2023-02-12T08:38:36.380Z,53.17
2023-02-12T08:41:07.374Z,53.45
2023-02-12T08:43:34.068Z,51.15
2023-02-12T08:46:11.572Z,56.47
2023-02-12T08:48:38.424Z,53.83
2023-02-12T08:51:05.906Z,51.95
2023-02-12T08:53:32.369Z,50.63
2023-02-12T08:55:58.879Z,53.63
2023-02-12T08:58:25.341Z,52.10
2023-02-12T09:00:53.414Z,53.40
2023-02-12T09:03:19.998Z,50.85
2023-02-12T09:05:46.488Z,50.38
2023-02-12T09:08:13.054Z,49.95
2023-02-12T09:10:43.115Z,52.13
2023-02-12T09:13:10.434Z,49.92
2023-02-12T09:15:45.000Z,50.20
2023-02-12T09:18:12.501Z,48.63
2023-02-12T09:20:40.100Z,51.85
2023-02-12T09:23:07.036Z,49.15
2023-02-12T09:25:34.435Z,49.47
2023-02-12T09:28:01.681Z,47.67
2023-02-12T09:30:28.173Z,47.60
2023-02-12T09:32:55.129Z,48.65
2023-02-12T09:35:21.794Z,47.58
2023-02-12T09:37:48.229Z,48.60
2023-02-12T09:40:23.127Z,48.08
2023-02-12T09:42:59.191Z,49.17
2023-02-12T09:45:32.968Z,47.67
2023-02-12T09:48:22.764Z,48.40
2023-02-12T09:50:49.254Z,50.22
2023-02-12T09:53:17.576Z,50.35
2023-02-12T09:55:44.076Z,49.00
2023-02-12T09:58:31.001Z,47.17
2023-02-12T10:00:57.602Z,48.10
2023-02-12T10:03:31.496Z,46.88
2023-02-12T10:06:00.338Z,46.15
2023-02-12T10:08:59.189Z,46.90
2023-02-12T10:11:28.452Z,44.35
2023-02-12T10:14:03.186Z,48.72
2023-02-12T10:16:58.957Z,46.55
2023-02-12T10:19:46.425Z,47.03
2023-02-12T10:22:18.742Z,45.83
2023-02-12T10:24:50.958Z,45.03
2023-02-12T10:27:20.436Z,44.60
2023-02-12T10:29:48.433Z,41.97
2023-02-12T10:32:35.694Z,33.50
2023-02-12T10:35:12.896Z,43.40
2023-02-12T10:37:39.470Z,43.92
2023-02-12T10:40:18.252Z,45.08
2023-02-12T10:42:46.307Z,44.78
2023-02-12T10:45:14.316Z,42.42
2023-02-12T10:47:40.906Z,41.63
2023-02-12T10:50:25.768Z,42.90
2023-02-12T10:52:55.340Z,40.20
2023-02-12T10:55:25.901Z,40.58
2023-02-12T10:57:52.682Z,39.28
2023-02-12T11:00:26.736Z,38.63
2023-02-12T11:03:20.262Z,39.22
2023-02-12T11:05:47.401Z,33.50
2023-02-12T11:08:29.561Z,29.35
2023-02-12T11:11:02.563Z,29.58
2023-02-12T11:13:29.074Z,29.33
2023-02-12T11:15:55.871Z,29.95
2023-02-12T11:18:28.756Z,30.40
2023-02-12T11:20:57.279Z,31.17
2023-02-12T11:23:42.391Z,32.35
2023-02-12T11:26:18.237Z,29.73
2023-02-12T11:29:01.083Z,31.55
2023-02-12T11:31:32.718Z,30.48
2023-02-12T11:34:08.589Z,31.58
2023-02-12T11:36:38.453Z,32.95
2023-02-12T11:39:07.715Z,32.00
2023-02-12T11:41:39.660Z,33.03
2023-02-12T11:44:18.903Z,31.17
2023-02-12T11:46:50.475Z,29.13
2023-02-12T11:49:21.626Z,30.35
2023-02-12T11:51:48.850Z,30.52
2023-02-12T11:54:20.614Z,31.52
2023-02-12T11:56:47.892Z,30.77
2023-02-12T11:59:27.433Z,28.48
2023-02-12T12:01:55.629Z,28.20
2023-02-12T12:04:23.149Z,29.27
2023-02-12T12:06:53.353Z,29.95
2023-02-12T12:09:29.861Z,30.77
2023-02-12T12:12:13.788Z,32.30
2023-02-12T12:15:02.469Z,30.23
2023-02-12T12:17:57.216Z,29.42
2023-02-12T12:20:25.223Z,29.48
2023-02-12T12:23:00.865Z,28.70
2023-02-12T12:25:37.483Z,27.70
2023-02-12T12:28:10.727Z,26.73
2023-02-12T12:30:37.268Z,27.42
2023-02-12T12:33:06.686Z,26.80
2023-02-12T12:35:44.208Z,28.63
2023-02-12T12:38:39.871Z,29.42
2023-02-12T12:41:21.328Z,26.45
2023-02-12T12:43:54.010Z,27.85
2023-02-12T12:46:50.080Z,25.92
2023-02-12T12:49:25.484Z,27.25
2023-02-12T12:52:10.827Z,28.05
2023-02-12T12:54:37.565Z,25.75
2023-02-12T12:57:16.905Z,26.13
2023-02-12T12:59:43.382Z,25.92
2023-02-12T13:02:28.893Z,25.92
2023-02-12T13:05:01.578Z,26.58
2023-02-12T13:07:45.164Z,25.63
2023-02-12T13:10:20.806Z,25.15
2023-02-12T13:12:50.300Z,24.67
2023-02-12T13:15:29.120Z,25.60
2023-02-12T13:18:14.739Z,27.17
2023-02-12T13:20:42.010Z,25.08
2023-02-12T13:23:15.842Z,24.48
2023-02-12T13:25:48.978Z,24.83
2023-02-12T13:28:24.575Z,24.40
2023-02-12T13:30:52.472Z,25.08
2023-02-12T13:33:27.610Z,25.15
2023-02-12T13:35:59.368Z,24.77
2023-02-12T13:38:27.955Z,25.08
2023-02-12T13:40:56.647Z,25.17
2023-02-12T13:43:32.462Z,24.30
2023-02-12T13:46:04.715Z,23.92
2023-02-12T13:48:50.033Z,22.90
2023-02-12T13:51:22.729Z,24.95
2023-02-12T13:53:56.788Z,24.35
2023-02-12T13:56:23.247Z,22.48
2023-02-12T13:58:51.634Z,22.75
2023-02-12T14:01:36.882Z,23.45
2023-02-12T14:04:22.179Z,23.13
2023-02-12T14:06:58.690Z,23.63
2023-02-12T14:09:35.209Z,22.60
2023-02-12T14:12:02.274Z,23.50
2023-02-12T14:14:58.284Z,22.85
2023-02-12T14:17:30.897Z,24.00
2023-02-12T14:20:16.147Z,25.58
2023-02-12T14:22:42.574Z,23.00
2023-02-12T14:25:15.158Z,21.40
2023-02-12T14:27:43.993Z,22.10
2023-02-12T14:30:10.434Z,23.10
2023-02-12T14:32:46.231Z,21.58
2023-02-12T14:35:31.156Z,23.50
2023-02-12T14:37:58.620Z,23.35
2023-02-12T14:40:34.452Z,22.20
2023-02-12T14:43:02.335Z,23.38
2023-02-12T14:45:35.623Z,24.10
2023-02-12T14:48:03.055Z,24.88
2023-02-12T14:50:31.897Z,24.23
2023-02-12T14:53:12.845Z,22.92
2023-02-12T14:55:43.527Z,23.20
2023-02-12T14:58:17.232Z,23.70
2023-02-12T15:00:45.691Z,23.88
2023-02-12T15:03:22.477Z,23.55
2023-02-12T15:06:01.053Z,24.95
2023-02-12T15:08:51.174Z,24.55
2023-02-12T15:11:28.092Z,24.10
2023-02-12T15:13:57.567Z,23.15
2023-02-12T15:16:31.344Z,23.73
2023-02-12T15:19:10.198Z,23.95
2023-02-12T15:21:37.428Z,23.52
2023-02-12T15:24:06.754Z,25.55
2023-02-12T15:26:34.858Z,27.73
2023-02-12T15:29:02.952Z,27.38
2023-02-12T15:31:30.636Z,28.23
2023-02-12T15:33:58.631Z,29.20
2023-02-12T15:36:26.008Z,31.10
2023-02-12T15:38:57.096Z,35.20
2023-02-12T15:41:28.637Z,25.75
2023-02-12T15:43:55.415Z,28.10
2023-02-12T15:46:21.989Z,23.95
2023-02-12T15:48:49.356Z,24.83
2023-02-12T15:51:19.033Z,24.55
2023-02-12T15:53:45.774Z,23.95
2023-02-12T15:56:13.432Z,24.58
2023-02-12T15:58:39.832Z,24.73
2023-02-12T16:01:06.668Z,26.90
2023-02-12T16:03:34.601Z,24.42
2023-02-12T16:06:06.138Z,24.45
2023-02-12T16:08:33.969Z,25.88
2023-02-12T16:11:13.616Z,24.63
2023-02-12T16:14:00.421Z,25.88
2023-02-12T16:16:31.527Z,25.15
2023-02-12T16:19:04.104Z,25.38
2023-02-12T16:21:30.930Z,25.83
2023-02-12T16:24:02.890Z,25.00
2023-02-12T16:26:30.342Z,26.38
2023-02-12T16:28:57.395Z,25.20
2023-02-12T16:31:27.094Z,26.63
2023-02-12T16:33:56.109Z,26.73
2023-02-12T16:36:22.755Z,24.58
2023-02-12T16:38:51.851Z,25.52
2023-02-12T16:41:25.819Z,23.90
2023-02-12T16:44:12.510Z,26.85
2023-02-12T16:46:46.748Z,24.80
2023-02-12T16:49:17.850Z,28.77
2023-02-12T16:51:44.884Z,28.95
2023-02-12T16:54:28.737Z,27.27
2023-02-12T16:56:55.317Z,25.17
2023-02-12T16:59:21.814Z,26.05
2023-02-12T17:02:01.523Z,25.15
2023-02-12T17:04:28.356Z,24.77
2023-02-12T17:06:54.770Z,26.90
2023-02-12T17:09:21.305Z,26.48
2023-02-12T17:11:47.916Z,27.00
2023-02-12T17:14:15.815Z,25.05
2023-02-12T17:16:42.579Z,26.08
2023-02-12T17:19:09.097Z,27.85
2023-02-12T17:21:38.740Z,26.20
2023-02-12T17:24:16.663Z,27.35
2023-02-12T17:26:43.502Z,27.23
2023-02-12T17:29:09.994Z,27.63
2023-02-12T17:31:37.626Z,27.63
2023-02-12T17:34:04.735Z,26.90
2023-02-12T17:36:31.212Z,26.15
2023-02-12T17:38:57.670Z,25.73
2023-02-12T17:41:24.518Z,25.80
2023-02-12T17:43:51.039Z,27.08
2023-02-12T17:46:21.746Z,27.27
2023-02-12T17:48:48.336Z,26.80
2023-02-12T17:51:15.162Z,26.60
2023-02-12T17:53:41.671Z,26.33
2023-02-12T17:56:15.498Z,26.60
2023-02-12T17:58:42.569Z,26.83
2023-02-12T18:01:10.724Z,25.55
2023-02-12T18:03:37.846Z,26.45
2023-02-12T18:06:04.786Z,26.70
2023-02-12T18:08:31.349Z,26.98
2023-02-12T18:10:58.458Z,25.05
2023-02-12T18:13:25.118Z,26.50
2023-02-12T18:15:51.619Z,26.35
2023-02-12T18:18:18.185Z,29.60
2023-02-12T18:20:44.611Z,33.85
2023-02-12T18:23:11.238Z,29.40
2023-02-12T18:25:41.656Z,29.95
2023-02-12T18:28:08.230Z,30.95
2023-02-12T18:30:36.583Z,31.80
2023-02-12T18:33:03.102Z,28.80
2023-02-12T18:35:29.571Z,27.95
2023-02-12T18:37:56.008Z,28.02
2023-02-12T18:40:22.497Z,27.80
2023-02-12T18:42:49.105Z,27.90
2023-02-12T18:45:15.602Z,24.65
2023-02-12T18:47:42.137Z,24.98
2023-02-12T18:50:08.809Z,24.98
2023-02-12T18:52:36.291Z,24.10
2023-02-12T18:55:02.973Z,24.55
2023-02-12T18:57:31.071Z,22.27
2023-02-12T18:59:57.542Z,22.55
2023-02-12T19:02:24.143Z,22.38
2023-02-12T19:04:50.707Z,22.10
2023-02-12T19:07:17.147Z,22.50
2023-02-12T19:09:43.749Z,21.65
2023-02-12T19:12:10.766Z,20.75
2023-02-12T19:14:37.224Z,20.90
2023-02-12T19:17:03.654Z,20.15
2023-02-12T19:19:30.102Z,20.20
2023-02-12T19:21:56.550Z,19.58
2023-02-12T19:24:23.069Z,18.88
2023-02-12T19:26:51.027Z,18.73
2023-02-12T19:29:18.219Z,15.57
2023-02-12T19:31:45.548Z,16.05
2023-02-12T19:34:17.843Z,13.15
2023-02-12T19:36:44.634Z,14.50
2023-02-12T19:39:13.752Z,14.27
2023-02-12T19:41:43.158Z,12.38
2023-02-12T19:44:10.933Z,12.05
2023-02-12T19:46:39.206Z,12.45
2023-02-12T19:49:06.742Z,10.05
2023-02-12T19:51:33.273Z,11.45
2023-02-12T19:54:01.020Z,10.48
2023-02-12T19:56:27.881Z,10.85
2023-02-12T19:58:55.663Z,9.85
2023-02-12T20:01:22.367Z,10.32
2023-02-12T20:03:49.327Z,10.00
2023-02-12T20:06:20.708Z,9.60
2023-02-12T20:08:47.212Z,10.65
2023-02-12T20:11:15.686Z,9.15
2023-02-12T20:13:42.186Z,9.10
2023-02-12T20:16:10.845Z,8.43
2023-02-12T20:18:37.659Z,9.02
2023-02-12T20:21:20.739Z,8.90
2023-02-12T20:23:47.298Z,8.82
2023-02-12T20:26:14.795Z,9.00
2023-02-12T20:28:44.482Z,8.40
2023-02-12T20:31:15.416Z,8.80
2023-02-12T20:33:42.216Z,9.15
2023-02-12T20:36:10.122Z,8.93
2023-02-12T20:38:38.260Z,9.02
2023-02-12T20:41:05.608Z,8.95
2023-02-12T20:43:33.183Z,9.15
2023-02-12T20:46:07.036Z,8.50
2023-02-12T20:48:33.886Z,9.77
2023-02-12T20:51:06.618Z,9.15
2023-02-12T20:53:33.406Z,9.63
2023-02-12T20:56:07.401Z,9.05
2023-02-12T20:58:33.845Z,10.30
2023-02-12T21:01:10.421Z,10.00
2023-02-12T21:03:37.112Z,10.15
2023-02-12T21:06:03.732Z,10.82
2023-02-12T21:08:30.217Z,10.25
2023-02-12T21:11:00.818Z,10.18
2023-02-12T21:13:27.752Z,10.35
2023-02-12T21:16:04.565Z,10.30
2023-02-12T21:18:31.124Z,9.32
2023-02-12T21:21:01.608Z,10.20
2023-02-12T21:23:28.041Z,9.68
2023-02-12T21:26:01.773Z,10.13
2023-02-12T21:28:28.561Z,10.10
2023-02-12T21:30:55.089Z,9.95
2023-02-12T21:33:21.505Z,14.05
2023-02-12T21:35:48.004Z,14.05
2023-02-12T21:38:14.502Z,9.32
2023-02-12T21:40:41.091Z,10.20
2023-02-12T21:43:07.498Z,10.07
2023-02-12T21:45:34.016Z,9.57
2023-02-12T21:48:00.491Z,10.38
2023-02-12T21:50:26.937Z,9.20
2023-02-12T21:52:53.470Z,9.27
2023-02-12T21:55:19.900Z,9.65
2023-02-12T21:57:47.276Z,9.27
2023-02-12T22:00:14.196Z,9.27
2023-02-12T22:02:41.619Z,8.15
2023-02-12T22:05:08.173Z,9.52
2023-02-12T22:07:34.747Z,8.75
2023-02-12T22:10:01.437Z,8.63
2023-02-12T22:12:32.192Z,8.95
2023-02-12T22:14:58.655Z,8.30
2023-02-12T22:17:25.147Z,9.18
2023-02-12T22:19:51.632Z,9.13
2023-02-12T22:22:18.078Z,9.35
2023-02-12T22:24:44.523Z,9.15
2023-02-12T22:27:10.952Z,9.23
2023-02-12T22:29:37.380Z,9.20
2023-02-12T22:32:04.049Z,8.88
2023-02-12T22:34:30.595Z,8.55
2023-02-12T22:36:57.069Z,8.75
2023-02-12T22:39:23.475Z,8.90
2023-02-12T22:41:50.129Z,9.38
2023-02-12T22:44:18.351Z,8.52
2023-02-12T22:46:45.934Z,9.27
2023-02-12T22:49:12.462Z,9.80
2023-02-12T22:51:39.644Z,9.68
2023-02-12T22:54:06.855Z,10.98
2023-02-12T22:56:33.475Z,9.57
2023-02-12T22:59:01.319Z,9.57
2023-02-12T23:01:28.877Z,9.27
2023-02-12T23:03:55.653Z,9.13
2023-02-12T23:06:23.440Z,8.02
2023-02-12T23:08:50.883Z,9.75
2023-02-12T23:11:18.100Z,8.88
2023-02-12T23:13:44.932Z,9.73
2023-02-12T23:16:11.490Z,8.75
2023-02-12T23:18:38.226Z,10.20
2023-02-12T23:21:04.925Z,9.32
2023-02-12T23:23:31.430Z,9.13
2023-02-12T23:25:57.924Z,10.27
2023-02-12T23:28:24.524Z,10.48
2023-02-12T23:30:51.490Z,11.32
2023-02-12T23:33:19.152Z,10.32
2023-02-12T23:35:46.068Z,10.55
2023-02-12T23:38:12.557Z,10.55
2023-02-12T23:40:38.998Z,10.07
2023-02-12T23:43:05.559Z,9.68
2023-02-12T23:45:32.373Z,9.95
2023-02-12T23:47:58.919Z,10.20
2023-02-12T23:50:25.496Z,10.35
2023-02-12T23:52:51.998Z,9.88
2023-02-12T23:55:20.164Z,9.68
2023-02-12T23:57:47.319Z,11.45
